sensor_id;sensor_type;location;lat;lon;timestamp;P1;durP1;ratioP1;P2;durP2;ratioP2
5199;SDS011;2619;47.868;11.892;2024-01-11T00:01:46;59.70;;;24.37;;
5199;SDS011;2619;47.868;11.892;2024-01-11T00:04:12;63.47;;;24.77;;
5199;SDS011;2619;47.868;11.892;2024-01-11T00:06:44;63.97;;;24.13;;
5199;SDS011;2619;47.868;11.892;2024-01-11T00:09:10;51.57;;;22.90;;
5199;SDS011;2619;47.868;11.892;2024-01-11T00:11:35;60.50;;;24.93;;
5199;SDS011;2619;47.868;11.892;2024-01-11T00:14:01;57.30;;;24.23;;
5199;SDS011;2619;47.868;11.892;2024-01-11T00:16:27;57.07;;;23.90;;
5199;SDS011;2619;47.868;11.892;2024-01-11T00:18:52;54.73;;;22.73;;
5199;SDS011;2619;47.868;11.892;2024-01-11T00:21:18;61.47;;;23.10;;
5199;SDS011;2619;47.868;11.892;2024-01-11T00:23:43;58.80;;;22.77;;
5199;SDS011;2619;47.868;11.892;2024-01-11T00:26:11;55.80;;;22.27;;
5199;SDS011;2619;47.868;11.892;2024-01-11T00:28:38;61.87;;;23.30;;
5199;SDS011;2619;47.868;11.892;2024-01-11T00:31:03;74.43;;;23.60;;
5199;SDS011;2619;47.868;11.892;2024-01-11T00:33:29;62.40;;;24.67;;
5199;SDS011;2619;47.868;11.892;2024-01-11T00:35:55;53.53;;;23.30;;
5199;SDS011;2619;47.868;11.892;2024-01-11T00:38:20;50.37;;;21.63;;
5199;SDS011;2619;47.868;11.892;2024-01-11T00:40:46;54.60;;;21.70;;
5199;SDS011;2619;47.868;11.892;2024-01-11T00:43:12;57.80;;;24.17;;
5199;SDS011;2619;47.868;11.892;2024-01-11T00:45:37;56.93;;;23.70;;
5199;SDS011;2619;47.868;11.892;2024-01-11T00:48:03;57.73;;;23.43;;
5199;SDS011;2619;47.868;11.892;2024-01-11T00:50:29;60.23;;;24.93;;
5199;SDS011;2619;47.868;11.892;2024-01-11T00:52:56;61.47;;;23.10;;
5199;SDS011;2619;47.868;11.892;2024-01-11T00:55:21;60.40;;;23.67;;
5199;SDS011;2619;47.868;11.892;2024-01-11T00:57:47;60.23;;;23.40;;
5199;SDS011;2619;47.868;11.892;2024-01-11T01:00:13;69.03;;;24.30;;
5199;SDS011;2619;47.868;11.892;2024-01-11T01:02:41;65.87;;;24.30;;
5199;SDS011;2619;47.868;11.892;2024-01-11T01:05:07;59.83;;;25.20;;
5199;SDS011;2619;47.868;11.892;2024-01-11T01:07:33;57.53;;;23.57;;
5199;SDS011;2619;47.868;11.892;2024-01-11T01:09:58;67.93;;;23.97;;
5199;SDS011;2619;47.868;11.892;2024-01-11T01:12:24;65.23;;;24.83;;
5199;SDS011;2619;47.868;11.892;2024-01-11T01:14:53;61.53;;;23.33;;
5199;SDS011;2619;47.868;11.892;2024-01-11T01:17:20;57.83;;;23.30;;
5199;SDS011;2619;47.868;11.892;2024-01-11T01:19:47;60.70;;;24.37;;
5199;SDS011;2619;47.868;11.892;2024-01-11T01:22:12;51.93;;;22.70;;
5199;SDS011;2619;47.868;11.892;2024-01-11T01:24:38;70.53;;;26.00;;
5199;SDS011;2619;47.868;11.892;2024-01-11T01:27:04;65.87;;;26.40;;
5199;SDS011;2619;47.868;11.892;2024-01-11T01:29:29;68.00;;;25.30;;
5199;SDS011;2619;47.868;11.892;2024-01-11T01:31:55;77.37;;;28.57;;
5199;SDS011;2619;47.868;11.892;2024-01-11T01:34:20;82.80;;;28.77;;
5199;SDS011;2619;47.868;11.892;2024-01-11T01:36:46;80.97;;;27.33;;
5199;SDS011;2619;47.868;11.892;2024-01-11T01:39:11;74.43;;;26.10;;
5199;SDS011;2619;47.868;11.892;2024-01-11T01:41:37;78.43;;;26.57;;
5199;SDS011;2619;47.868;11.892;2024-01-11T01:44:03;65.83;;;25.63;;
5199;SDS011;2619;47.868;11.892;2024-01-11T01:46:29;111.07;;;27.60;;
5199;SDS011;2619;47.868;11.892;2024-01-11T01:48:55;86.60;;;28.80;;
5199;SDS011;2619;47.868;11.892;2024-01-11T01:51:24;88.03;;;26.57;;
5199;SDS011;2619;47.868;11.892;2024-01-11T01:53:53;73.93;;;24.47;;
5199;SDS011;2619;47.868;11.892;2024-01-11T01:56:21;63.07;;;23.43;;
5199;SDS011;2619;47.868;11.892;2024-01-11T01:58:47;66.40;;;23.30;;
5199;SDS011;2619;47.868;11.892;2024-01-11T02:01:21;74.93;;;24.37;;
5199;SDS011;2619;47.868;11.892;2024-01-11T02:03:51;66.33;;;24.03;;
5199;SDS011;2619;47.868;11.892;2024-01-11T02:06:19;83.80;;;26.03;;
5199;SDS011;2619;47.868;11.892;2024-01-11T02:08:48;74.57;;;28.07;;
5199;SDS011;2619;47.868;11.892;2024-01-11T02:11:16;88.13;;;25.40;;
5199;SDS011;2619;47.868;11.892;2024-01-11T02:13:44;75.90;;;26.67;;
5199;SDS011;2619;47.868;11.892;2024-01-11T02:16:11;118.13;;;29.10;;
5199;SDS011;2619;47.868;11.892;2024-01-11T02:18:37;65.17;;;25.07;;
5199;SDS011;2619;47.868;11.892;2024-01-11T02:21:03;64.13;;;23.53;;
5199;SDS011;2619;47.868;11.892;2024-01-11T02:23:33;73.03;;;24.53;;
5199;SDS011;2619;47.868;11.892;2024-01-11T02:26:06;65.07;;;24.97;;
5199;SDS011;2619;47.868;11.892;2024-01-11T02:28:32;79.73;;;24.00;;
5199;SDS011;2619;47.868;11.892;2024-01-11T02:30:57;66.87;;;25.33;;
5199;SDS011;2619;47.868;11.892;2024-01-11T02:33:23;113.83;;;27.40;;
5199;SDS011;2619;47.868;11.892;2024-01-11T02:35:49;76.73;;;26.57;;
5199;SDS011;2619;47.868;11.892;2024-01-11T02:38:15;80.50;;;25.20;;
5199;SDS011;2619;47.868;11.892;2024-01-11T02:40:41;82.47;;;26.43;;
5199;SDS011;2619;47.868;11.892;2024-01-11T02:43:09;86.97;;;27.03;;
5199;SDS011;2619;47.868;11.892;2024-01-11T02:45:35;80.97;;;25.50;;
5199;SDS011;2619;47.868;11.892;2024-01-11T02:48:01;82.93;;;25.17;;
5199;SDS011;2619;47.868;11.892;2024-01-11T02:50:26;62.30;;;23.80;;
5199;SDS011;2619;47.868;11.892;2024-01-11T02:52:52;115.47;;;25.50;;
5199;SDS011;2619;47.868;11.892;2024-01-11T02:55:17;75.60;;;24.77;;
5199;SDS011;2619;47.868;11.892;2024-01-11T02:57:43;64.43;;;22.90;;
5199;SDS011;2619;47.868;11.892;2024-01-11T03:00:09;79.13;;;25.47;;
5199;SDS011;2619;47.868;11.892;2024-01-11T03:02:36;64.57;;;22.27;;
5199;SDS011;2619;47.868;11.892;2024-01-11T03:05:03;73.27;;;26.13;;
5199;SDS011;2619;47.868;11.892;2024-01-11T03:07:28;61.43;;;24.87;;
5199;SDS011;2619;47.868;11.892;2024-01-11T03:09:55;66.30;;;24.60;;
5199;SDS011;2619;47.868;11.892;2024-01-11T03:12:21;78.33;;;23.87;;
5199;SDS011;2619;47.868;11.892;2024-01-11T03:14:47;66.63;;;23.27;;
5199;SDS011;2619;47.868;11.892;2024-01-11T03:17:13;85.57;;;24.10;;
5199;SDS011;2619;47.868;11.892;2024-01-11T03:19:39;85.50;;;24.47;;
5199;SDS011;2619;47.868;11.892;2024-01-11T03:22:05;72.63;;;25.47;;
5199;SDS011;2619;47.868;11.892;2024-01-11T03:24:32;60.80;;;21.70;;
5199;SDS011;2619;47.868;11.892;2024-01-11T03:26:57;55.93;;;22.13;;
5199;SDS011;2619;47.868;11.892;2024-01-11T03:29:23;67.77;;;23.77;;
5199;SDS011;2619;47.868;11.892;2024-01-11T03:31:49;70.00;;;24.40;;
5199;SDS011;2619;47.868;11.892;2024-01-11T03:34:14;69.93;;;22.27;;
5199;SDS011;2619;47.868;11.892;2024-01-11T03:36:40;85.70;;;25.90;;
5199;SDS011;2619;47.868;11.892;2024-01-11T03:39:05;60.27;;;23.80;;
5199;SDS011;2619;47.868;11.892;2024-01-11T03:41:31;78.60;;;23.40;;
5199;SDS011;2619;47.868;11.892;2024-01-11T03:43:57;61.73;;;24.20;;
5199;SDS011;2619;47.868;11.892;2024-01-11T03:46:22;63.10;;;25.23;;
5199;SDS011;2619;47.868;11.892;2024-01-11T03:48:48;70.83;;;24.23;;
5199;SDS011;2619;47.868;11.892;2024-01-11T03:51:13;62.30;;;24.40;;
5199;SDS011;2619;47.868;11.892;2024-01-11T03:53:39;71.03;;;24.33;;
5199;SDS011;2619;47.868;11.892;2024-01-11T03:56:05;62.77;;;24.70;;
5199;SDS011;2619;47.868;11.892;2024-01-11T03:58:30;58.67;;;24.13;;
5199;SDS011;2619;47.868;11.892;2024-01-11T04:00:56;75.60;;;22.80;;
5199;SDS011;2619;47.868;11.892;2024-01-11T04:03:21;56.27;;;23.07;;
5199;SDS011;2619;47.868;11.892;2024-01-11T04:05:47;69.10;;;24.20;;
5199;SDS011;2619;47.868;11.892;2024-01-11T04:08:13;66.50;;;24.43;;
5199;SDS011;2619;47.868;11.892;2024-01-11T04:10:39;82.17;;;25.93;;
5199;SDS011;2619;47.868;11.892;2024-01-11T04:13:06;55.70;;;21.63;;
5199;SDS011;2619;47.868;11.892;2024-01-11T04:15:32;73.27;;;24.03;;
5199;SDS011;2619;47.868;11.892;2024-01-11T04:17:58;68.47;;;23.60;;
5199;SDS011;2619;47.868;11.892;2024-01-11T04:20:23;60.17;;;23.30;;
5199;SDS011;2619;47.868;11.892;2024-01-11T04:22:49;70.43;;;24.57;;
5199;SDS011;2619;47.868;11.892;2024-01-11T04:25:15;72.83;;;24.10;;
5199;SDS011;2619;47.868;11.892;2024-01-11T04:27:40;62.83;;;24.87;;
5199;SDS011;2619;47.868;11.892;2024-01-11T04:30:06;68.40;;;24.10;;
5199;SDS011;2619;47.868;11.892;2024-01-11T04:32:32;56.40;;;22.27;;
5199;SDS011;2619;47.868;11.892;2024-01-11T04:34:57;60.67;;;23.90;;
5199;SDS011;2619;47.868;11.892;2024-01-11T04:37:23;63.63;;;23.70;;
5199;SDS011;2619;47.868;11.892;2024-01-11T04:39:49;51.83;;;24.67;;
5199;SDS011;2619;47.868;11.892;2024-01-11T04:42:14;52.10;;;22.53;;
5199;SDS011;2619;47.868;11.892;2024-01-11T04:44:40;63.23;;;26.10;;
5199;SDS011;2619;47.868;11.892;2024-01-11T04:47:05;58.80;;;21.87;;
5199;SDS011;2619;47.868;11.892;2024-01-11T04:49:31;58.30;;;23.07;;
5199;SDS011;2619;47.868;11.892;2024-01-11T04:51:56;58.93;;;22.70;;
5199;SDS011;2619;47.868;11.892;2024-01-11T04:54:22;60.20;;;25.70;;
5199;SDS011;2619;47.868;11.892;2024-01-11T04:56:47;57.73;;;22.20;;
5199;SDS011;2619;47.868;11.892;2024-01-11T04:59:13;59.17;;;23.73;;
5199;SDS011;2619;47.868;11.892;2024-01-11T05:01:39;53.23;;;21.10;;
5199;SDS011;2619;47.868;11.892;2024-01-11T05:04:06;58.17;;;22.27;;
5199;SDS011;2619;47.868;11.892;2024-01-11T05:06:31;59.67;;;22.73;;
5199;SDS011;2619;47.868;11.892;2024-01-11T05:08:57;58.20;;;23.47;;
5199;SDS011;2619;47.868;11.892;2024-01-11T05:11:23;60.87;;;21.93;;
5199;SDS011;2619;47.868;11.892;2024-01-11T05:13:49;50.37;;;22.10;;
5199;SDS011;2619;47.868;11.892;2024-01-11T05:16:22;57.57;;;22.60;;
5199;SDS011;2619;47.868;11.892;2024-01-11T05:18:49;43.13;;;17.10;;
5199;SDS011;2619;47.868;11.892;2024-01-11T05:21:19;54.60;;;21.43;;
5199;SDS011;2619;47.868;11.892;2024-01-11T05:23:45;53.83;;;20.23;;
5199;SDS011;2619;47.868;11.892;2024-01-11T05:26:13;51.50;;;21.43;;
5199;SDS011;2619;47.868;11.892;2024-01-11T05:28:39;52.23;;;20.97;;
5199;SDS011;2619;47.868;11.892;2024-01-11T05:31:08;54.57;;;20.50;;
5199;SDS011;2619;47.868;11.892;2024-01-11T05:33:34;44.47;;;19.63;;
5199;SDS011;2619;47.868;11.892;2024-01-11T05:36:00;46.73;;;19.30;;
5199;SDS011;2619;47.868;11.892;2024-01-11T05:38:26;46.20;;;18.00;;
5199;SDS011;2619;47.868;11.892;2024-01-11T05:40:51;46.87;;;18.53;;
5199;SDS011;2619;47.868;11.892;2024-01-11T05:43:17;42.93;;;18.47;;
5199;SDS011;2619;47.868;11.892;2024-01-11T05:45:42;49.97;;;22.20;;
5199;SDS011;2619;47.868;11.892;2024-01-11T05:48:10;46.87;;;20.30;;
5199;SDS011;2619;47.868;11.892;2024-01-11T05:50:36;46.17;;;19.33;;
5199;SDS011;2619;47.868;11.892;2024-01-11T05:53:01;44.13;;;20.90;;
5199;SDS011;2619;47.868;11.892;2024-01-11T05:55:27;52.30;;;20.40;;
5199;SDS011;2619;47.868;11.892;2024-01-11T05:57:53;43.77;;;18.90;;
5199;SDS011;2619;47.868;11.892;2024-01-11T06:00:19;59.17;;;21.77;;
5199;SDS011;2619;47.868;11.892;2024-01-11T06:02:45;50.57;;;20.40;;
5199;SDS011;2619;47.868;11.892;2024-01-11T06:05:11;44.60;;;19.10;;
5199;SDS011;2619;47.868;11.892;2024-01-11T06:07:37;42.17;;;19.20;;
5199;SDS011;2619;47.868;11.892;2024-01-11T06:10:03;41.63;;;16.73;;
5199;SDS011;2619;47.868;11.892;2024-01-11T06:12:30;40.93;;;18.93;;
5199;SDS011;2619;47.868;11.892;2024-01-11T06:14:56;37.23;;;17.20;;
5199;SDS011;2619;47.868;11.892;2024-01-11T06:17:22;43.00;;;17.17;;
5199;SDS011;2619;47.868;11.892;2024-01-11T06:19:48;51.03;;;21.47;;
5199;SDS011;2619;47.868;11.892;2024-01-11T06:22:14;48.30;;;19.10;;
5199;SDS011;2619;47.868;11.892;2024-01-11T06:24:40;41.37;;;16.87;;
5199;SDS011;2619;47.868;11.892;2024-01-11T06:27:05;39.37;;;18.70;;
5199;SDS011;2619;47.868;11.892;2024-01-11T06:29:31;44.10;;;18.00;;
5199;SDS011;2619;47.868;11.892;2024-01-11T06:31:56;48.03;;;19.70;;
5199;SDS011;2619;47.868;11.892;2024-01-11T06:34:22;45.47;;;18.10;;
5199;SDS011;2619;47.868;11.892;2024-01-11T06:36:47;46.17;;;18.70;;
5199;SDS011;2619;47.868;11.892;2024-01-11T06:39:13;39.50;;;17.00;;
5199;SDS011;2619;47.868;11.892;2024-01-11T06:41:39;39.47;;;17.47;;
5199;SDS011;2619;47.868;11.892;2024-01-11T06:44:04;40.80;;;17.80;;
5199;SDS011;2619;47.868;11.892;2024-01-11T06:46:30;43.70;;;15.60;;
5199;SDS011;2619;47.868;11.892;2024-01-11T06:48:56;36.77;;;17.70;;
5199;SDS011;2619;47.868;11.892;2024-01-11T06:51:22;40.43;;;16.97;;
5199;SDS011;2619;47.868;11.892;2024-01-11T06:53:48;44.47;;;16.83;;
5199;SDS011;2619;47.868;11.892;2024-01-11T06:56:18;34.70;;;18.27;;
5199;SDS011;2619;47.868;11.892;2024-01-11T06:58:44;41.17;;;17.63;;
5199;SDS011;2619;47.868;11.892;2024-01-11T07:01:11;40.80;;;18.13;;
5199;SDS011;2619;47.868;11.892;2024-01-11T07:03:37;42.83;;;18.30;;
5199;SDS011;2619;47.868;11.892;2024-01-11T07:06:03;46.23;;;17.77;;
5199;SDS011;2619;47.868;11.892;2024-01-11T07:08:29;38.77;;;16.93;;
5199;SDS011;2619;47.868;11.892;2024-01-11T07:10:55;50.37;;;19.20;;
5199;SDS011;2619;47.868;11.892;2024-01-11T07:13:20;39.33;;;18.13;;
5199;SDS011;2619;47.868;11.892;2024-01-11T07:15:46;53.17;;;21.37;;
5199;SDS011;2619;47.868;11.892;2024-01-11T07:18:13;54.33;;;21.00;;
5199;SDS011;2619;47.868;11.892;2024-01-11T07:20:39;44.63;;;19.97;;
5199;SDS011;2619;47.868;11.892;2024-01-11T07:23:05;47.27;;;20.57;;
5199;SDS011;2619;47.868;11.892;2024-01-11T07:25:30;48.30;;;21.17;;
5199;SDS011;2619;47.868;11.892;2024-01-11T07:27:57;66.73;;;23.60;;
5199;SDS011;2619;47.868;11.892;2024-01-11T07:30:23;53.50;;;23.60;;
5199;SDS011;2619;47.868;11.892;2024-01-11T07:32:49;64.17;;;23.70;;
5199;SDS011;2619;47.868;11.892;2024-01-11T07:35:14;59.63;;;25.17;;
5199;SDS011;2619;47.868;11.892;2024-01-11T07:37:40;68.93;;;23.83;;
5199;SDS011;2619;47.868;11.892;2024-01-11T07:40:06;60.30;;;23.80;;
5199;SDS011;2619;47.868;11.892;2024-01-11T07:42:36;56.67;;;22.40;;
5199;SDS011;2619;47.868;11.892;2024-01-11T07:45:04;71.13;;;23.60;;
5199;SDS011;2619;47.868;11.892;2024-01-11T07:47:30;58.27;;;22.70;;
5199;SDS011;2619;47.868;11.892;2024-01-11T07:49:56;56.27;;;24.57;;
5199;SDS011;2619;47.868;11.892;2024-01-11T07:52:22;64.50;;;25.80;;
5199;SDS011;2619;47.868;11.892;2024-01-11T07:54:47;70.50;;;26.93;;
5199;SDS011;2619;47.868;11.892;2024-01-11T07:57:13;84.40;;;26.07;;
5199;SDS011;2619;47.868;11.892;2024-01-11T07:59:38;78.43;;;27.30;;
5199;SDS011;2619;47.868;11.892;2024-01-11T08:02:04;75.43;;;26.20;;
5199;SDS011;2619;47.868;11.892;2024-01-11T08:04:31;69.10;;;27.10;;
5199;SDS011;2619;47.868;11.892;2024-01-11T08:06:56;66.67;;;25.80;;
5199;SDS011;2619;47.868;11.892;2024-01-11T08:09:24;66.53;;;26.40;;
5199;SDS011;2619;47.868;11.892;2024-01-11T08:11:51;84.50;;;30.03;;
5199;SDS011;2619;47.868;11.892;2024-01-11T08:14:18;68.20;;;26.63;;
5199;SDS011;2619;47.868;11.892;2024-01-11T08:16:44;69.10;;;28.33;;
5199;SDS011;2619;47.868;11.892;2024-01-11T08:19:10;53.50;;;22.00;;
5199;SDS011;2619;47.868;11.892;2024-01-11T08:21:35;65.00;;;26.07;;
5199;SDS011;2619;47.868;11.892;2024-01-11T08:24:01;54.77;;;23.00;;
5199;SDS011;2619;47.868;11.892;2024-01-11T08:26:27;54.93;;;25.67;;
5199;SDS011;2619;47.868;11.892;2024-01-11T08:28:54;50.70;;;21.57;;
5199;SDS011;2619;47.868;11.892;2024-01-11T08:31:20;62.80;;;25.00;;
5199;SDS011;2619;47.868;11.892;2024-01-11T08:33:46;60.47;;;25.57;;
5199;SDS011;2619;47.868;11.892;2024-01-11T08:36:11;57.70;;;24.90;;
5199;SDS011;2619;47.868;11.892;2024-01-11T08:38:38;53.03;;;23.67;;
5199;SDS011;2619;47.868;11.892;2024-01-11T08:41:05;62.80;;;24.70;;
5199;SDS011;2619;47.868;11.892;2024-01-11T08:43:31;58.17;;;22.97;;
5199;SDS011;2619;47.868;11.892;2024-01-11T08:45:57;51.43;;;21.93;;
5199;SDS011;2619;47.868;11.892;2024-01-11T08:48:23;52.07;;;22.97;;
5199;SDS011;2619;47.868;11.892;2024-01-11T08:50:48;55.47;;;22.17;;
5199;SDS011;2619;47.868;11.892;2024-01-11T08:53:14;45.07;;;21.50;;
5199;SDS011;2619;47.868;11.892;2024-01-11T08:55:41;47.73;;;21.80;;
5199;SDS011;2619;47.868;11.892;2024-01-11T08:58:07;41.33;;;19.73;;
5199;SDS011;2619;47.868;11.892;2024-01-11T09:00:33;35.10;;;16.70;;
5199;SDS011;2619;47.868;11.892;2024-01-11T09:02:58;39.00;;;17.17;;
5199;SDS011;2619;47.868;11.892;2024-01-11T09:05:24;41.67;;;19.10;;
5199;SDS011;2619;47.868;11.892;2024-01-11T09:07:50;39.03;;;17.07;;
5199;SDS011;2619;47.868;11.892;2024-01-11T09:10:15;32.73;;;16.53;;
5199;SDS011;2619;47.868;11.892;2024-01-11T09:12:41;34.10;;;16.70;;
5199;SDS011;2619;47.868;11.892;2024-01-11T09:15:07;29.07;;;16.23;;
5199;SDS011;2619;47.868;11.892;2024-01-11T09:17:33;39.60;;;17.80;;
5199;SDS011;2619;47.868;11.892;2024-01-11T09:19:58;43.80;;;18.10;;
5199;SDS011;2619;47.868;11.892;2024-01-11T09:22:24;36.30;;;16.20;;
5199;SDS011;2619;47.868;11.892;2024-01-11T09:24:49;38.00;;;16.67;;
5199;SDS011;2619;47.868;11.892;2024-01-11T09:27:15;35.70;;;16.33;;
5199;SDS011;2619;47.868;11.892;2024-01-11T09:29:44;31.77;;;15.30;;
5199;SDS011;2619;47.868;11.892;2024-01-11T09:32:10;35.40;;;16.90;;
5199;SDS011;2619;47.868;11.892;2024-01-11T09:34:37;35.70;;;16.10;;
5199;SDS011;2619;47.868;11.892;2024-01-11T09:37:02;33.10;;;16.43;;
5199;SDS011;2619;47.868;11.892;2024-01-11T09:39:28;33.60;;;16.10;;
5199;SDS011;2619;47.868;11.892;2024-01-11T09:41:58;33.97;;;17.60;;
5199;SDS011;2619;47.868;11.892;2024-01-11T09:44:26;35.37;;;17.03;;
5199;SDS011;2619;47.868;11.892;2024-01-11T09:46:52;34.97;;;17.13;;
5199;SDS011;2619;47.868;11.892;2024-01-11T09:49:18;36.00;;;18.20;;
5199;SDS011;2619;47.868;11.892;2024-01-11T09:51:46;32.77;;;15.70;;
5199;SDS011;2619;47.868;11.892;2024-01-11T09:54:13;37.00;;;16.23;;
5199;SDS011;2619;47.868;11.892;2024-01-11T09:56:40;31.80;;;15.77;;
5199;SDS011;2619;47.868;11.892;2024-01-11T09:59:07;38.90;;;16.20;;
5199;SDS011;2619;47.868;11.892;2024-01-11T10:01:34;32.70;;;15.67;;
5199;SDS011;2619;47.868;11.892;2024-01-11T10:04:00;33.40;;;17.27;;
5199;SDS011;2619;47.868;11.892;2024-01-11T10:06:28;33.77;;;15.33;;
5199;SDS011;2619;47.868;11.892;2024-01-11T10:08:59;36.40;;;16.27;;
5199;SDS011;2619;47.868;11.892;2024-01-11T10:11:24;34.63;;;15.53;;
5199;SDS011;2619;47.868;11.892;2024-01-11T10:13:55;32.63;;;16.50;;
5199;SDS011;2619;47.868;11.892;2024-01-11T10:16:22;34.50;;;16.20;;
5199;SDS011;2619;47.868;11.892;2024-01-11T10:18:47;32.77;;;16.07;;
5199;SDS011;2619;47.868;11.892;2024-01-11T10:21:13;34.17;;;14.97;;
5199;SDS011;2619;47.868;11.892;2024-01-11T10:23:39;31.40;;;15.70;;
5199;SDS011;2619;47.868;11.892;2024-01-11T10:26:04;39.80;;;17.10;;
5199;SDS011;2619;47.868;11.892;2024-01-11T10:28:32;32.80;;;16.90;;
5199;SDS011;2619;47.868;11.892;2024-01-11T10:31:02;36.90;;;18.20;;
5199;SDS011;2619;47.868;11.892;2024-01-11T10:33:29;38.37;;;17.60;;
5199;SDS011;2619;47.868;11.892;2024-01-11T10:35:55;33.87;;;15.83;;
5199;SDS011;2619;47.868;11.892;2024-01-11T10:38:20;38.17;;;17.17;;
5199;SDS011;2619;47.868;11.892;2024-01-11T10:40:47;34.23;;;16.00;;
5199;SDS011;2619;47.868;11.892;2024-01-11T10:43:14;34.60;;;16.07;;
5199;SDS011;2619;47.868;11.892;2024-01-11T10:45:46;27.80;;;14.50;;
5199;SDS011;2619;47.868;11.892;2024-01-11T10:48:14;30.07;;;14.33;;
5199;SDS011;2619;47.868;11.892;2024-01-11T10:50:44;31.50;;;15.10;;
5199;SDS011;2619;47.868;11.892;2024-01-11T10:55:50;26.87;;;13.20;;
5199;SDS011;2619;47.868;11.892;2024-01-11T10:58:16;26.33;;;12.80;;
5199;SDS011;2619;47.868;11.892;2024-01-11T11:00:44;30.60;;;14.40;;
5199;SDS011;2619;47.868;11.892;2024-01-11T11:03:11;29.90;;;14.67;;
5199;SDS011;2619;47.868;11.892;2024-01-11T11:05:38;28.20;;;14.00;;
5199;SDS011;2619;47.868;11.892;2024-01-11T11:08:06;28.50;;;14.63;;
5199;SDS011;2619;47.868;11.892;2024-01-11T11:10:34;31.93;;;15.37;;
5199;SDS011;2619;47.868;11.892;2024-01-11T11:13:01;25.63;;;13.67;;
5199;SDS011;2619;47.868;11.892;2024-01-11T11:15:28;32.30;;;14.93;;
5199;SDS011;2619;47.868;11.892;2024-01-11T11:17:54;30.03;;;13.50;;
5199;SDS011;2619;47.868;11.892;2024-01-11T11:20:20;26.57;;;13.40;;
5199;SDS011;2619;47.868;11.892;2024-01-11T11:25:45;28.93;;;14.07;;
5199;SDS011;2619;47.868;11.892;2024-01-11T11:28:12;29.77;;;13.60;;
5199;SDS011;2619;47.868;11.892;2024-01-11T11:30:42;28.33;;;13.30;;
5199;SDS011;2619;47.868;11.892;2024-01-11T11:35:35;26.57;;;13.47;;
5199;SDS011;2619;47.868;11.892;2024-01-11T11:38:01;30.80;;;12.87;;
5199;SDS011;2619;47.868;11.892;2024-01-11T11:42:57;34.53;;;15.03;;
5199;SDS011;2619;47.868;11.892;2024-01-11T11:45:25;23.43;;;13.33;;
5199;SDS011;2619;47.868;11.892;2024-01-11T11:47:51;28.77;;;14.40;;
5199;SDS011;2619;47.868;11.892;2024-01-11T11:50:17;24.67;;;14.53;;
5199;SDS011;2619;47.868;11.892;2024-01-11T11:52:47;32.83;;;15.57;;
5199;SDS011;2619;47.868;11.892;2024-01-11T11:55:22;28.40;;;15.67;;
5199;SDS011;2619;47.868;11.892;2024-01-11T11:57:51;29.20;;;15.70;;
5199;SDS011;2619;47.868;11.892;2024-01-11T12:00:20;37.13;;;16.00;;
5199;SDS011;2619;47.868;11.892;2024-01-11T12:02:48;29.03;;;16.90;;
5199;SDS011;2619;47.868;11.892;2024-01-11T12:05:16;31.00;;;16.57;;
5199;SDS011;2619;47.868;11.892;2024-01-11T12:07:43;36.83;;;17.30;;
5199;SDS011;2619;47.868;11.892;2024-01-11T12:10:10;35.23;;;17.53;;
5199;SDS011;2619;47.868;11.892;2024-01-11T12:12:35;34.80;;;17.60;;
5199;SDS011;2619;47.868;11.892;2024-01-11T12:15:02;36.10;;;19.13;;
5199;SDS011;2619;47.868;11.892;2024-01-11T12:17:29;39.50;;;19.53;;
5199;SDS011;2619;47.868;11.892;2024-01-11T12:19:54;40.97;;;18.17;;
5199;SDS011;2619;47.868;11.892;2024-01-11T12:22:20;38.57;;;19.30;;
5199;SDS011;2619;47.868;11.892;2024-01-11T12:24:46;36.43;;;18.73;;
5199;SDS011;2619;47.868;11.892;2024-01-11T12:27:12;42.90;;;20.97;;
5199;SDS011;2619;47.868;11.892;2024-01-11T12:29:40;36.73;;;19.40;;
5199;SDS011;2619;47.868;11.892;2024-01-11T12:32:07;40.87;;;20.90;;
5199;SDS011;2619;47.868;11.892;2024-01-11T12:34:36;40.30;;;20.37;;
5199;SDS011;2619;47.868;11.892;2024-01-11T12:37:01;38.97;;;19.80;;
5199;SDS011;2619;47.868;11.892;2024-01-11T12:39:30;44.33;;;22.83;;
5199;SDS011;2619;47.868;11.892;2024-01-11T12:41:56;43.10;;;20.60;;
5199;SDS011;2619;47.868;11.892;2024-01-11T12:44:22;40.93;;;19.97;;
5199;SDS011;2619;47.868;11.892;2024-01-11T12:46:49;43.30;;;22.10;;
5199;SDS011;2619;47.868;11.892;2024-01-11T12:49:15;44.47;;;20.87;;
5199;SDS011;2619;47.868;11.892;2024-01-11T12:51:41;42.53;;;20.93;;
5199;SDS011;2619;47.868;11.892;2024-01-11T12:54:13;47.57;;;21.07;;
5199;SDS011;2619;47.868;11.892;2024-01-11T12:56:48;42.30;;;20.80;;
5199;SDS011;2619;47.868;11.892;2024-01-11T12:59:15;41.87;;;23.00;;
5199;SDS011;2619;47.868;11.892;2024-01-11T13:01:41;43.57;;;20.17;;
5199;SDS011;2619;47.868;11.892;2024-01-11T13:04:10;45.33;;;20.43;;
5199;SDS011;2619;47.868;11.892;2024-01-11T13:06:36;43.20;;;19.30;;
5199;SDS011;2619;47.868;11.892;2024-01-11T13:09:02;42.70;;;21.03;;
5199;SDS011;2619;47.868;11.892;2024-01-11T13:11:28;41.30;;;20.37;;
5199;SDS011;2619;47.868;11.892;2024-01-11T13:13:54;37.80;;;18.80;;
5199;SDS011;2619;47.868;11.892;2024-01-11T13:16:20;37.10;;;18.50;;
5199;SDS011;2619;47.868;11.892;2024-01-11T13:18:46;36.27;;;19.03;;
5199;SDS011;2619;47.868;11.892;2024-01-11T13:21:12;36.63;;;19.60;;
5199;SDS011;2619;47.868;11.892;2024-01-11T13:23:37;41.30;;;19.90;;
5199;SDS011;2619;47.868;11.892;2024-01-11T13:26:04;45.63;;;21.60;;
5199;SDS011;2619;47.868;11.892;2024-01-11T13:28:31;39.43;;;19.10;;
5199;SDS011;2619;47.868;11.892;2024-01-11T13:30:57;44.57;;;20.80;;
5199;SDS011;2619;47.868;11.892;2024-01-11T13:33:22;37.37;;;20.80;;
5199;SDS011;2619;47.868;11.892;2024-01-11T13:35:48;44.90;;;21.20;;
5199;SDS011;2619;47.868;11.892;2024-01-11T13:38:15;45.20;;;19.83;;
5199;SDS011;2619;47.868;11.892;2024-01-11T13:40:41;43.67;;;19.93;;
5199;SDS011;2619;47.868;11.892;2024-01-11T13:43:08;39.00;;;18.50;;
5199;SDS011;2619;47.868;11.892;2024-01-11T13:45:34;40.90;;;18.83;;
5199;SDS011;2619;47.868;11.892;2024-01-11T13:48:01;35.53;;;18.23;;
5199;SDS011;2619;47.868;11.892;2024-01-11T13:50:28;36.80;;;18.70;;
5199;SDS011;2619;47.868;11.892;2024-01-11T13:52:53;32.40;;;16.67;;
5199;SDS011;2619;47.868;11.892;2024-01-11T13:55:19;40.27;;;17.67;;
5199;SDS011;2619;47.868;11.892;2024-01-11T13:57:46;34.97;;;17.60;;
5199;SDS011;2619;47.868;11.892;2024-01-11T14:00:12;38.83;;;17.60;;
5199;SDS011;2619;47.868;11.892;2024-01-11T14:02:38;38.73;;;18.43;;
5199;SDS011;2619;47.868;11.892;2024-01-11T14:05:05;33.43;;;17.53;;
5199;SDS011;2619;47.868;11.892;2024-01-11T14:07:34;38.03;;;18.23;;
5199;SDS011;2619;47.868;11.892;2024-01-11T14:10:00;40.60;;;18.97;;
5199;SDS011;2619;47.868;11.892;2024-01-11T14:12:25;35.77;;;17.53;;
5199;SDS011;2619;47.868;11.892;2024-01-11T14:14:51;38.17;;;18.27;;
5199;SDS011;2619;47.868;11.892;2024-01-11T14:17:17;37.97;;;18.20;;
5199;SDS011;2619;47.868;11.892;2024-01-11T14:19:42;36.03;;;18.67;;
5199;SDS011;2619;47.868;11.892;2024-01-11T14:22:08;34.43;;;18.43;;
5199;SDS011;2619;47.868;11.892;2024-01-11T14:24:33;38.07;;;17.93;;
5199;SDS011;2619;47.868;11.892;2024-01-11T14:26:59;41.87;;;18.10;;
5199;SDS011;2619;47.868;11.892;2024-01-11T14:29:24;45.53;;;20.27;;
5199;SDS011;2619;47.868;11.892;2024-01-11T14:31:50;41.97;;;20.23;;
5199;SDS011;2619;47.868;11.892;2024-01-11T14:34:17;33.80;;;17.70;;
5199;SDS011;2619;47.868;11.892;2024-01-11T14:36:42;37.73;;;17.47;;
5199;SDS011;2619;47.868;11.892;2024-01-11T14:39:08;39.40;;;17.80;;